sensor_id;sensor_type;location;lat;lon;timestamp;P1;durP1;ratioP1;P2;durP2;ratioP2
27857;SDS011;16852;51.446;6.528;2023-03-04T00:00:03;13.27;;;3.95;;
27857;SDS011;16852;51.446;6.528;2023-03-04T00:02:05;13.23;;;3.87;;
27857;SDS011;16852;51.446;6.528;2023-03-04T00:04:05;10.85;;;4.25;;
27857;SDS011;16852;51.446;6.528;2023-03-04T00:06:06;11.75;;;4.32;;
27857;SDS011;16852;51.446;6.528;2023-03-04T00:08:07;13.35;;;4.47;;
27857;SDS011;16852;51.446;6.528;2023-03-04T00:10:08;14.43;;;4.60;;
27857;SDS011;16852;51.446;6.528;2023-03-04T00:12:09;15.20;;;5.32;;
27857;SDS011;16852;51.446;6.528;2023-03-04T00:14:09;24.58;;;7.45;;
27857;SDS011;16852;51.446;6.528;2023-03-04T00:16:10;22.38;;;8.70;;
27857;SDS011;16852;51.446;6.528;2023-03-04T00:18:11;16.52;;;6.72;;
27857;SDS011;16852;51.446;6.528;2023-03-04T00:20:12;17.25;;;5.72;;
27857;SDS011;16852;51.446;6.528;2023-03-04T00:22:13;13.63;;;4.13;;
27857;SDS011;16852;51.446;6.528;2023-03-04T00:24:13;14.93;;;3.55;;
27857;SDS011;16852;51.446;6.528;2023-03-04T00:26:14;14.90;;;3.30;;
27857;SDS011;16852;51.446;6.528;2023-03-04T00:28:15;11.05;;;3.00;;
27857;SDS011;16852;51.446;6.528;2023-03-04T00:30:16;8.18;;;2.60;;
27857;SDS011;16852;51.446;6.528;2023-03-04T00:32:17;8.98;;;2.72;;
27857;SDS011;16852;51.446;6.528;2023-03-04T00:34:17;10.85;;;3.20;;
27857;SDS011;16852;51.446;6.528;2023-03-04T00:36:18;11.05;;;2.60;;
27857;SDS011;16852;51.446;6.528;2023-03-04T00:38:19;13.95;;;3.63;;
27857;SDS011;16852;51.446;6.528;2023-03-04T00:40:19;10.93;;;2.80;;
27857;SDS011;16852;51.446;6.528;2023-03-04T00:42:20;10.35;;;2.75;;
27857;SDS011;16852;51.446;6.528;2023-03-04T00:44:20;9.70;;;2.88;;
27857;SDS011;16852;51.446;6.528;2023-03-04T00:46:21;15.15;;;3.10;;
27857;SDS011;16852;51.446;6.528;2023-03-04T00:48:22;14.63;;;3.15;;
27857;SDS011;16852;51.446;6.528;2023-03-04T00:50:22;14.40;;;3.13;;
27857;SDS011;16852;51.446;6.528;2023-03-04T00:52:23;15.57;;;3.20;;
27857;SDS011;16852;51.446;6.528;2023-03-04T00:54:24;14.93;;;3.10;;
27857;SDS011;16852;51.446;6.528;2023-03-04T00:56:24;14.02;;;3.00;;
27857;SDS011;16852;51.446;6.528;2023-03-04T00:58:25;12.68;;;2.83;;
27857;SDS011;16852;51.446;6.528;2023-03-04T01:00:25;11.70;;;3.70;;
27857;SDS011;16852;51.446;6.528;2023-03-04T01:02:26;15.63;;;3.50;;
27857;SDS011;16852;51.446;6.528;2023-03-04T01:04:26;11.50;;;2.85;;
27857;SDS011;16852;51.446;6.528;2023-03-04T01:06:27;13.15;;;2.92;;
27857;SDS011;16852;51.446;6.528;2023-03-04T01:08:28;12.73;;;2.80;;
27857;SDS011;16852;51.446;6.528;2023-03-04T01:10:28;12.18;;;2.88;;
27857;SDS011;16852;51.446;6.528;2023-03-04T01:12:29;12.35;;;2.53;;
27857;SDS011;16852;51.446;6.528;2023-03-04T01:14:29;14.02;;;2.65;;
27857;SDS011;16852;51.446;6.528;2023-03-04T01:16:30;7.85;;;2.60;;
27857;SDS011;16852;51.446;6.528;2023-03-04T01:18:30;12.43;;;2.53;;
27857;SDS011;16852;51.446;6.528;2023-03-04T01:20:32;12.13;;;2.80;;
27857;SDS011;16852;51.446;6.528;2023-03-04T01:22:32;11.73;;;2.80;;
27857;SDS011;16852;51.446;6.528;2023-03-04T01:24:33;10.93;;;2.60;;
27857;SDS011;16852;51.446;6.528;2023-03-04T01:26:33;11.82;;;2.88;;
27857;SDS011;16852;51.446;6.528;2023-03-04T01:28:34;12.75;;;2.85;;
27857;SDS011;16852;51.446;6.528;2023-03-04T01:30:35;13.10;;;3.08;;
27857;SDS011;16852;51.446;6.528;2023-03-04T01:32:35;15.43;;;3.08;;
27857;SDS011;16852;51.446;6.528;2023-03-04T01:34:36;9.50;;;2.10;;
27857;SDS011;16852;51.446;6.528;2023-03-04T01:36:36;14.98;;;3.35;;
27857;SDS011;16852;51.446;6.528;2023-03-04T01:38:37;18.88;;;3.45;;
27857;SDS011;16852;51.446;6.528;2023-03-04T01:40:37;15.73;;;3.13;;
27857;SDS011;16852;51.446;6.528;2023-03-04T01:42:38;18.23;;;3.83;;
27857;SDS011;16852;51.446;6.528;2023-03-04T01:44:39;14.98;;;3.58;;
27857;SDS011;16852;51.446;6.528;2023-03-04T01:46:45;10.45;;;2.92;;
27857;SDS011;16852;51.446;6.528;2023-03-04T01:48:48;15.00;;;3.38;;
27857;SDS011;16852;51.446;6.528;2023-03-04T01:50:49;16.67;;;3.13;;
27857;SDS011;16852;51.446;6.528;2023-03-04T01:52:50;17.63;;;4.00;;
27857;SDS011;16852;51.446;6.528;2023-03-04T01:54:50;15.65;;;3.22;;
27857;SDS011;16852;51.446;6.528;2023-03-04T01:56:51;11.25;;;2.42;;
27857;SDS011;16852;51.446;6.528;2023-03-04T02:01:13;12.35;;;3.03;;
27857;SDS011;16852;51.446;6.528;2023-03-04T02:03:15;16.65;;;3.42;;
27857;SDS011;16852;51.446;6.528;2023-03-04T02:05:18;16.60;;;3.47;;
27857;SDS011;16852;51.446;6.528;2023-03-04T02:07:21;11.30;;;2.83;;
27857;SDS011;16852;51.446;6.528;2023-03-04T02:09:21;15.95;;;2.63;;
27857;SDS011;16852;51.446;6.528;2023-03-04T02:11:22;15.68;;;3.28;;
27857;SDS011;16852;51.446;6.528;2023-03-04T02:13:23;11.88;;;2.70;;
27857;SDS011;16852;51.446;6.528;2023-03-04T02:15:24;13.30;;;3.08;;
27857;SDS011;16852;51.446;6.528;2023-03-04T02:17:25;14.25;;;3.13;;
27857;SDS011;16852;51.446;6.528;2023-03-04T02:19:35;10.68;;;3.00;;
27857;SDS011;16852;51.446;6.528;2023-03-04T02:21:49;10.88;;;2.75;;
27857;SDS011;16852;51.446;6.528;2023-03-04T02:28:13;17.95;;;3.13;;
27857;SDS011;16852;51.446;6.528;2023-03-04T02:30:15;11.25;;;2.15;;
27857;SDS011;16852;51.446;6.528;2023-03-04T02:32:20;13.65;;;2.75;;
27857;SDS011;16852;51.446;6.528;2023-03-04T02:34:22;6.53;;;2.17;;
27857;SDS011;16852;51.446;6.528;2023-03-04T02:36:26;14.95;;;3.47;;
27857;SDS011;16852;51.446;6.528;2023-03-04T02:38:28;16.80;;;3.65;;
27857;SDS011;16852;51.446;6.528;2023-03-04T02:40:29;12.95;;;2.53;;
27857;SDS011;16852;51.446;6.528;2023-03-04T02:42:32;8.55;;;2.10;;
27857;SDS011;16852;51.446;6.528;2023-03-04T02:44:33;13.10;;;2.92;;
27857;SDS011;16852;51.446;6.528;2023-03-04T02:46:36;17.38;;;2.83;;
27857;SDS011;16852;51.446;6.528;2023-03-04T02:48:36;14.30;;;2.95;;
27857;SDS011;16852;51.446;6.528;2023-03-04T02:50:41;10.10;;;3.05;;
27857;SDS011;16852;51.446;6.528;2023-03-04T02:52:44;19.70;;;3.28;;
27857;SDS011;16852;51.446;6.528;2023-03-04T02:54:45;12.98;;;2.78;;
27857;SDS011;16852;51.446;6.528;2023-03-04T02:56:47;10.82;;;2.47;;
27857;SDS011;16852;51.446;6.528;2023-03-04T02:58:49;11.68;;;2.88;;
27857;SDS011;16852;51.446;6.528;2023-03-04T03:00:50;16.70;;;3.33;;
27857;SDS011;16852;51.446;6.528;2023-03-04T03:02:50;20.17;;;3.25;;
27857;SDS011;16852;51.446;6.528;2023-03-04T03:04:51;13.27;;;2.90;;
27857;SDS011;16852;51.446;6.528;2023-03-04T03:06:52;14.75;;;3.00;;
27857;SDS011;16852;51.446;6.528;2023-03-04T03:08:52;10.75;;;2.28;;
27857;SDS011;16852;51.446;6.528;2023-03-04T03:10:53;14.40;;;2.90;;
27857;SDS011;16852;51.446;6.528;2023-03-04T03:12:54;14.40;;;2.88;;
27857;SDS011;16852;51.446;6.528;2023-03-04T03:14:55;15.13;;;2.40;;
27857;SDS011;16852;51.446;6.528;2023-03-04T03:16:55;14.65;;;3.25;;
27857;SDS011;16852;51.446;6.528;2023-03-04T03:18:56;12.20;;;2.65;;
27857;SDS011;16852;51.446;6.528;2023-03-04T03:20:56;11.40;;;2.28;;
27857;SDS011;16852;51.446;6.528;2023-03-04T03:22:57;11.43;;;2.58;;
27857;SDS011;16852;51.446;6.528;2023-03-04T03:24:58;7.05;;;2.10;;
27857;SDS011;16852;51.446;6.528;2023-03-04T03:26:58;13.18;;;2.63;;
27857;SDS011;16852;51.446;6.528;2023-03-04T03:28:59;9.85;;;2.17;;
27857;SDS011;16852;51.446;6.528;2023-03-04T03:30:59;22.85;;;2.55;;
27857;SDS011;16852;51.446;6.528;2023-03-04T03:33:00;11.68;;;2.60;;
27857;SDS011;16852;51.446;6.528;2023-03-04T03:35:01;13.02;;;2.40;;
27857;SDS011;16852;51.446;6.528;2023-03-04T03:37:01;10.57;;;2.42;;
27857;SDS011;16852;51.446;6.528;2023-03-04T03:39:02;13.70;;;2.95;;
27857;SDS011;16852;51.446;6.528;2023-03-04T03:41:03;15.52;;;3.28;;
27857;SDS011;16852;51.446;6.528;2023-03-04T03:43:03;14.20;;;3.30;;
27857;SDS011;16852;51.446;6.528;2023-03-04T03:45:04;9.27;;;2.55;;
27857;SDS011;16852;51.446;6.528;2023-03-04T03:47:05;23.80;;;3.55;;
27857;SDS011;16852;51.446;6.528;2023-03-04T03:49:06;15.35;;;2.63;;
27857;SDS011;16852;51.446;6.528;2023-03-04T03:51:06;11.70;;;2.60;;
27857;SDS011;16852;51.446;6.528;2023-03-04T03:53:07;11.55;;;2.80;;
27857;SDS011;16852;51.446;6.528;2023-03-04T03:55:08;11.68;;;2.65;;
27857;SDS011;16852;51.446;6.528;2023-03-04T03:57:08;14.52;;;2.53;;
27857;SDS011;16852;51.446;6.528;2023-03-04T03:59:09;12.20;;;2.75;;
27857;SDS011;16852;51.446;6.528;2023-03-04T04:01:09;12.65;;;2.25;;
27857;SDS011;16852;51.446;6.528;2023-03-04T04:03:12;9.65;;;2.47;;
27857;SDS011;16852;51.446;6.528;2023-03-04T04:05:14;14.93;;;2.65;;
27857;SDS011;16852;51.446;6.528;2023-03-04T04:07:15;13.60;;;2.97;;
27857;SDS011;16852;51.446;6.528;2023-03-04T04:09:16;8.02;;;1.77;;
27857;SDS011;16852;51.446;6.528;2023-03-04T04:11:16;10.40;;;2.03;;
27857;SDS011;16852;51.446;6.528;2023-03-04T04:13:17;8.85;;;1.67;;
27857;SDS011;16852;51.446;6.528;2023-03-04T04:15:18;9.95;;;2.28;;
27857;SDS011;16852;51.446;6.528;2023-03-04T04:17:18;11.65;;;2.20;;
27857;SDS011;16852;51.446;6.528;2023-03-04T04:19:19;10.65;;;2.40;;
27857;SDS011;16852;51.446;6.528;2023-03-04T04:21:20;6.82;;;1.92;;
27857;SDS011;16852;51.446;6.528;2023-03-04T04:23:21;12.77;;;1.98;;
27857;SDS011;16852;51.446;6.528;2023-03-04T04:25:22;8.18;;;2.25;;
27857;SDS011;16852;51.446;6.528;2023-03-04T04:27:22;19.23;;;3.15;;
27857;SDS011;16852;51.446;6.528;2023-03-04T04:29:23;11.90;;;2.47;;
27857;SDS011;16852;51.446;6.528;2023-03-04T04:31:23;8.35;;;2.00;;
27857;SDS011;16852;51.446;6.528;2023-03-04T04:33:24;8.23;;;2.00;;
27857;SDS011;16852;51.446;6.528;2023-03-04T04:35:25;9.57;;;2.28;;
27857;SDS011;16852;51.446;6.528;2023-03-04T04:37:26;15.20;;;2.63;;
27857;SDS011;16852;51.446;6.528;2023-03-04T04:39:27;10.85;;;2.25;;
27857;SDS011;16852;51.446;6.528;2023-03-04T04:41:29;10.05;;;2.13;;
27857;SDS011;16852;51.446;6.528;2023-03-04T04:43:33;8.02;;;1.85;;
27857;SDS011;16852;51.446;6.528;2023-03-04T04:45:34;8.07;;;1.83;;
27857;SDS011;16852;51.446;6.528;2023-03-04T04:47:34;10.60;;;2.33;;
27857;SDS011;16852;51.446;6.528;2023-03-04T04:49:35;10.10;;;2.00;;
27857;SDS011;16852;51.446;6.528;2023-03-04T04:51:36;9.63;;;1.80;;
27857;SDS011;16852;51.446;6.528;2023-03-04T04:53:37;6.30;;;1.80;;
27857;SDS011;16852;51.446;6.528;2023-03-04T04:55:38;9.70;;;1.90;;
27857;SDS011;16852;51.446;6.528;2023-03-04T04:57:38;9.27;;;2.03;;
27857;SDS011;16852;51.446;6.528;2023-03-04T04:59:39;8.27;;;1.85;;
27857;SDS011;16852;51.446;6.528;2023-03-04T05:01:40;8.43;;;1.92;;
27857;SDS011;16852;51.446;6.528;2023-03-04T05:03:40;6.47;;;1.70;;
27857;SDS011;16852;51.446;6.528;2023-03-04T05:05:41;9.10;;;2.40;;
27857;SDS011;16852;51.446;6.528;2023-03-04T05:07:41;5.35;;;1.38;;
27857;SDS011;16852;51.446;6.528;2023-03-04T05:09:42;7.60;;;1.77;;
27857;SDS011;16852;51.446;6.528;2023-03-04T05:11:43;8.93;;;1.65;;
27857;SDS011;16852;51.446;6.528;2023-03-04T05:13:44;11.60;;;2.17;;
27857;SDS011;16852;51.446;6.528;2023-03-04T05:15:45;10.38;;;1.73;;
27857;SDS011;16852;51.446;6.528;2023-03-04T05:17:46;12.57;;;2.55;;
27857;SDS011;16852;51.446;6.528;2023-03-04T05:19:46;11.00;;;2.58;;
27857;SDS011;16852;51.446;6.528;2023-03-04T05:21:47;10.15;;;2.00;;
27857;SDS011;16852;51.446;6.528;2023-03-04T05:23:47;10.80;;;1.80;;
27857;SDS011;16852;51.446;6.528;2023-03-04T05:25:48;6.95;;;1.85;;
27857;SDS011;16852;51.446;6.528;2023-03-04T05:27:49;7.90;;;1.85;;
27857;SDS011;16852;51.446;6.528;2023-03-04T05:29:49;10.88;;;2.45;;
27857;SDS011;16852;51.446;6.528;2023-03-04T05:31:50;9.38;;;2.22;;
27857;SDS011;16852;51.446;6.528;2023-03-04T05:33:50;7.15;;;2.00;;
27857;SDS011;16852;51.446;6.528;2023-03-04T05:35:51;7.32;;;1.80;;
27857;SDS011;16852;51.446;6.528;2023-03-04T05:37:53;5.47;;;1.80;;
27857;SDS011;16852;51.446;6.528;2023-03-04T05:39:54;8.82;;;1.90;;
27857;SDS011;16852;51.446;6.528;2023-03-04T05:41:54;8.23;;;1.63;;
27857;SDS011;16852;51.446;6.528;2023-03-04T05:43:55;7.20;;;1.98;;
27857;SDS011;16852;51.446;6.528;2023-03-04T05:45:55;7.32;;;1.77;;
27857;SDS011;16852;51.446;6.528;2023-03-04T05:47:56;11.05;;;2.05;;
27857;SDS011;16852;51.446;6.528;2023-03-04T05:49:57;9.55;;;1.92;;
27857;SDS011;16852;51.446;6.528;2023-03-04T05:51:57;6.13;;;1.70;;
27857;SDS011;16852;51.446;6.528;2023-03-04T05:53:58;7.13;;;1.70;;
27857;SDS011;16852;51.446;6.528;2023-03-04T05:55:59;16.42;;;2.88;;
27857;SDS011;16852;51.446;6.528;2023-03-04T05:57:59;7.85;;;2.10;;
27857;SDS011;16852;51.446;6.528;2023-03-04T06:00:00;10.43;;;1.85;;
27857;SDS011;16852;51.446;6.528;2023-03-04T06:02:01;11.05;;;2.47;;
27857;SDS011;16852;51.446;6.528;2023-03-04T06:04:01;4.03;;;1.38;;
27857;SDS011;16852;51.446;6.528;2023-03-04T06:06:02;10.48;;;2.58;;
27857;SDS011;16852;51.446;6.528;2023-03-04T06:08:03;9.85;;;1.92;;
27857;SDS011;16852;51.446;6.528;2023-03-04T06:10:04;12.23;;;2.42;;
27857;SDS011;16852;51.446;6.528;2023-03-04T06:12:06;14.32;;;2.35;;
27857;SDS011;16852;51.446;6.528;2023-03-04T06:14:07;6.82;;;1.85;;
27857;SDS011;16852;51.446;6.528;2023-03-04T06:16:08;7.85;;;2.45;;
27857;SDS011;16852;51.446;6.528;2023-03-04T06:18:08;9.43;;;2.22;;
27857;SDS011;16852;51.446;6.528;2023-03-04T06:20:10;9.40;;;2.38;;
27857;SDS011;16852;51.446;6.528;2023-03-04T06:22:11;7.68;;;2.00;;
27857;SDS011;16852;51.446;6.528;2023-03-04T06:24:11;6.20;;;1.70;;
27857;SDS011;16852;51.446;6.528;2023-03-04T06:26:12;11.30;;;2.00;;
27857;SDS011;16852;51.446;6.528;2023-03-04T06:28:14;6.68;;;1.77;;
27857;SDS011;16852;51.446;6.528;2023-03-04T06:30:14;7.90;;;2.10;;
27857;SDS011;16852;51.446;6.528;2023-03-04T06:32:15;12.68;;;1.85;;
27857;SDS011;16852;51.446;6.528;2023-03-04T06:34:16;9.68;;;2.05;;
27857;SDS011;16852;51.446;6.528;2023-03-04T06:36:16;7.32;;;1.77;;
27857;SDS011;16852;51.446;6.528;2023-03-04T06:38:17;10.85;;;2.25;;
27857;SDS011;16852;51.446;6.528;2023-03-04T06:40:18;8.23;;;1.65;;
27857;SDS011;16852;51.446;6.528;2023-03-04T06:42:18;6.15;;;2.00;;
27857;SDS011;16852;51.446;6.528;2023-03-04T06:44:19;8.05;;;2.05;;
27857;SDS011;16852;51.446;6.528;2023-03-04T06:46:19;7.50;;;1.52;;
27857;SDS011;16852;51.446;6.528;2023-03-04T06:48:20;9.77;;;1.77;;
27857;SDS011;16852;51.446;6.528;2023-03-04T06:50:21;10.55;;;2.15;;
27857;SDS011;16852;51.446;6.528;2023-03-04T06:52:21;6.28;;;1.60;;
27857;SDS011;16852;51.446;6.528;2023-03-04T06:54:22;9.25;;;1.45;;
27857;SDS011;16852;51.446;6.528;2023-03-04T06:56:22;8.27;;;2.03;;
27857;SDS011;16852;51.446;6.528;2023-03-04T06:58:23;6.78;;;1.55;;
27857;SDS011;16852;51.446;6.528;2023-03-04T07:00:23;14.00;;;1.77;;
27857;SDS011;16852;51.446;6.528;2023-03-04T07:02:24;8.98;;;2.15;;
27857;SDS011;16852;51.446;6.528;2023-03-04T07:04:25;7.13;;;1.75;;
27857;SDS011;16852;51.446;6.528;2023-03-04T07:06:26;10.38;;;1.98;;
27857;SDS011;16852;51.446;6.528;2023-03-04T07:08:27;6.65;;;2.17;;
27857;SDS011;16852;51.446;6.528;2023-03-04T07:10:28;11.68;;;2.50;;
27857;SDS011;16852;51.446;6.528;2023-03-04T07:12:29;9.10;;;2.55;;
27857;SDS011;16852;51.446;6.528;2023-03-04T07:14:29;7.60;;;2.50;;
27857;SDS011;16852;51.446;6.528;2023-03-04T07:16:30;7.15;;;2.10;;
27857;SDS011;16852;51.446;6.528;2023-03-04T07:18:30;8.35;;;2.05;;
27857;SDS011;16852;51.446;6.528;2023-03-04T07:20:31;5.28;;;1.45;;
27857;SDS011;16852;51.446;6.528;2023-03-04T07:22:32;10.55;;;2.00;;
27857;SDS011;16852;51.446;6.528;2023-03-04T07:24:32;8.50;;;1.70;;
27857;SDS011;16852;51.446;6.528;2023-03-04T07:26:33;8.73;;;1.63;;
27857;SDS011;16852;51.446;6.528;2023-03-04T07:28:34;4.90;;;1.85;;
27857;SDS011;16852;51.446;6.528;2023-03-04T07:30:35;7.85;;;1.80;;
27857;SDS011;16852;51.446;6.528;2023-03-04T07:32:36;8.55;;;1.88;;
27857;SDS011;16852;51.446;6.528;2023-03-04T07:34:36;4.43;;;1.52;;
27857;SDS011;16852;51.446;6.528;2023-03-04T07:36:37;5.57;;;1.38;;
27857;SDS011;16852;51.446;6.528;2023-03-04T07:38:38;10.95;;;1.77;;
27857;SDS011;16852;51.446;6.528;2023-03-04T07:40:38;9.23;;;1.58;;
27857;SDS011;16852;51.446;6.528;2023-03-04T07:42:39;10.10;;;2.00;;
27857;SDS011;16852;51.446;6.528;2023-03-04T07:44:39;4.40;;;1.45;;
27857;SDS011;16852;51.446;6.528;2023-03-04T07:46:40;6.40;;;1.30;;
27857;SDS011;16852;51.446;6.528;2023-03-04T07:48:40;7.55;;;1.98;;
27857;SDS011;16852;51.446;6.528;2023-03-04T07:50:41;12.48;;;2.00;;
27857;SDS011;16852;51.446;6.528;2023-03-04T07:52:43;8.65;;;1.83;;
27857;SDS011;16852;51.446;6.528;2023-03-04T07:54:45;9.45;;;1.88;;
27857;SDS011;16852;51.446;6.528;2023-03-04T07:56:46;8.75;;;1.95;;
27857;SDS011;16852;51.446;6.528;2023-03-04T07:58:47;6.47;;;1.75;;
27857;SDS011;16852;51.446;6.528;2023-03-04T08:00:48;4.72;;;1.60;;
27857;SDS011;16852;51.446;6.528;2023-03-04T08:02:49;8.00;;;1.50;;
27857;SDS011;16852;51.446;6.528;2023-03-04T08:04:49;10.57;;;1.58;;
27857;SDS011;16852;51.446;6.528;2023-03-04T08:06:50;6.35;;;1.80;;
27857;SDS011;16852;51.446;6.528;2023-03-04T08:08:54;6.95;;;1.73;;
27857;SDS011;16852;51.446;6.528;2023-03-04T08:10:59;9.23;;;2.40;;
27857;SDS011;16852;51.446;6.528;2023-03-04T08:13:03;8.73;;;2.22;;
27857;SDS011;16852;51.446;6.528;2023-03-04T08:15:04;10.60;;;1.88;;
27857;SDS011;16852;51.446;6.528;2023-03-04T08:17:05;5.10;;;1.45;;
27857;SDS011;16852;51.446;6.528;2023-03-04T08:19:06;9.65;;;1.80;;
27857;SDS011;16852;51.446;6.528;2023-03-04T08:21:08;10.20;;;1.50;;
27857;SDS011;16852;51.446;6.528;2023-03-04T08:23:11;6.90;;;1.70;;
27857;SDS011;16852;51.446;6.528;2023-03-04T08:25:12;12.45;;;1.80;;
27857;SDS011;16852;51.446;6.528;2023-03-04T08:27:12;10.10;;;1.95;;
27857;SDS011;16852;51.446;6.528;2023-03-04T08:29:14;6.40;;;1.70;;
27857;SDS011;16852;51.446;6.528;2023-03-04T08:31:17;9.68;;;1.63;;
27857;SDS011;16852;51.446;6.528;2023-03-04T08:33:18;8.55;;;1.73;;
27857;SDS011;16852;51.446;6.528;2023-03-04T08:35:19;11.05;;;2.17;;
27857;SDS011;16852;51.446;6.528;2023-03-04T08:37:19;16.30;;;2.00;;
27857;SDS011;16852;51.446;6.528;2023-03-04T08:39:20;11.98;;;2.08;;
27857;SDS011;16852;51.446;6.528;2023-03-04T08:41:20;5.78;;;1.48;;
27857;SDS011;16852;51.446;6.528;2023-03-04T08:43:22;8.10;;;1.92;;
27857;SDS011;16852;51.446;6.528;2023-03-04T08:45:23;9.25;;;2.55;;
27857;SDS011;16852;51.446;6.528;2023-03-04T08:47:24;9.48;;;2.45;;
27857;SDS011;16852;51.446;6.528;2023-03-04T08:49:25;8.45;;;1.77;;
27857;SDS011;16852;51.446;6.528;2023-03-04T08:51:25;9.30;;;1.80;;
27857;SDS011;16852;51.446;6.528;2023-03-04T08:53:26;10.80;;;2.00;;
27857;SDS011;16852;51.446;6.528;2023-03-04T08:55:27;8.02;;;1.80;;
27857;SDS011;16852;51.446;6.528;2023-03-04T08:57:27;10.25;;;2.03;;
27857;SDS011;16852;51.446;6.528;2023-03-04T08:59:28;8.52;;;1.70;;
27857;SDS011;16852;51.446;6.528;2023-03-04T09:01:29;8.80;;;1.77;;
27857;SDS011;16852;51.446;6.528;2023-03-04T09:03:29;9.82;;;2.20;;
27857;SDS011;16852;51.446;6.528;2023-03-04T09:05:31;9.30;;;2.22;;
27857;SDS011;16852;51.446;6.528;2023-03-04T09:07:31;8.68;;;1.98;;
27857;SDS011;16852;51.446;6.528;2023-03-04T09:09:32;9.88;;;1.75;;
27857;SDS011;16852;51.446;6.528;2023-03-04T09:11:33;13.52;;;1.70;;
27857;SDS011;16852;51.446;6.528;2023-03-04T09:13:34;10.27;;;1.65;;
27857;SDS011;16852;51.446;6.528;2023-03-04T09:15:35;8.85;;;1.83;;
27857;SDS011;16852;51.446;6.528;2023-03-04T09:17:36;7.35;;;1.70;;
27857;SDS011;16852;51.446;6.528;2023-03-04T09:19:37;11.45;;;1.83;;
27857;SDS011;16852;51.446;6.528;2023-03-04T09:21:38;8.02;;;1.90;;
27857;SDS011;16852;51.446;6.528;2023-03-04T09:23:39;16.40;;;1.80;;
27857;SDS011;16852;51.446;6.528;2023-03-04T09:25:40;6.30;;;1.40;;
27857;SDS011;16852;51.446;6.528;2023-03-04T09:27:41;9.30;;;2.45;;
27857;SDS011;16852;51.446;6.528;2023-03-04T09:29:42;10.52;;;1.83;;
27857;SDS011;16852;51.446;6.528;2023-03-04T09:31:44;10.65;;;2.08;;
27857;SDS011;16852;51.446;6.528;2023-03-04T09:33:45;4.85;;;1.30;;
27857;SDS011;16852;51.446;6.528;2023-03-04T09:35:45;6.93;;;1.48;;
27857;SDS011;16852;51.446;6.528;2023-03-04T09:37:47;6.72;;;1.92;;
27857;SDS011;16852;51.446;6.528;2023-03-04T09:39:49;5.78;;;1.70;;
27857;SDS011;16852;51.446;6.528;2023-03-04T09:41:51;9.55;;;1.70;;
27857;SDS011;16852;51.446;6.528;2023-03-04T09:43:56;8.00;;;1.38;;
27857;SDS011;16852;51.446;6.528;2023-03-04T09:46:04;4.45;;;1.60;;
27857;SDS011;16852;51.446;6.528;2023-03-04T09:48:12;4.30;;;1.27;;
27857;SDS011;16852;51.446;6.528;2023-03-04T09:50:17;8.43;;;1.63;;
27857;SDS011;16852;51.446;6.528;2023-03-04T09:52:28;6.55;;;1.92;;
27857;SDS011;16852;51.446;6.528;2023-03-04T09:56:53;13.15;;;1.70;;
27857;SDS011;16852;51.446;6.528;2023-03-04T09:59:02;9.23;;;1.90;;
27857;SDS011;16852;51.446;6.528;2023-03-04T10:01:30;5.28;;;1.38;;
27857;SDS011;16852;51.446;6.528;2023-03-04T10:03:43;5.93;;;1.25;;
27857;SDS011;16852;51.446;6.528;2023-03-04T10:07:56;8.43;;;1.42;;
27857;SDS011;16852;51.446;6.528;2023-03-04T10:10:01;4.45;;;1.35;;
27857;SDS011;16852;51.446;6.528;2023-03-04T10:12:05;8.63;;;1.83;;
27857;SDS011;16852;51.446;6.528;2023-03-04T10:16:22;7.55;;;1.58;;
27857;SDS011;16852;51.446;6.528;2023-03-04T10:18:30;7.50;;;1.40;;
27857;SDS011;16852;51.446;6.528;2023-03-04T10:20:55;7.20;;;1.48;;
27857;SDS011;16852;51.446;6.528;2023-03-04T10:23:01;6.45;;;1.25;;
27857;SDS011;16852;51.446;6.528;2023-03-04T10:25:14;5.72;;;1.42;;
27857;SDS011;16852;51.446;6.528;2023-03-04T10:27:23;9.30;;;1.60;;
27857;SDS011;16852;51.446;6.528;2023-03-04T10:29:24;8.75;;;1.38;;
27857;SDS011;16852;51.446;6.528;2023-03-04T10:31:32;5.30;;;1.13;;
27857;SDS011;16852;51.446;6.528;2023-03-04T10:33:37;4.55;;;1.30;;
27857;SDS011;16852;51.446;6.528;2023-03-04T10:35:38;5.30;;;1.10;;
27857;SDS011;16852;51.446;6.528;2023-03-04T10:37:46;4.05;;;1.17;;
27857;SDS011;16852;51.446;6.528;2023-03-04T10:39:49;5.45;;;1.30;;
27857;SDS011;16852;51.446;6.528;2023-03-04T10:41:54;6.93;;;1.40;;
27857;SDS011;16852;51.446;6.528;2023-03-04T10:46:04;8.18;;;1.50;;
27857;SDS011;16852;51.446;6.528;2023-03-04T10:48:04;7.57;;;1.73;;
27857;SDS011;16852;51.446;6.528;2023-03-04T10:50:05;12.23;;;1.80;;
27857;SDS011;16852;51.446;6.528;2023-03-04T10:52:28;4.63;;;1.17;;
27857;SDS011;16852;51.446;6.528;2023-03-04T10:54:40;4.32;;;1.45;;
27857;SDS011;16852;51.446;6.528;2023-03-04T11:01:28;5.72;;;1.60;;
27857;SDS011;16852;51.446;6.528;2023-03-04T11:05:31;4.78;;;1.63;;
27857;SDS011;16852;51.446;6.528;2023-03-04T11:07:35;4.82;;;1.10;;
27857;SDS011;16852;51.446;6.528;2023-03-04T11:09:39;8.77;;;1.63;;
27857;SDS011;16852;51.446;6.528;2023-03-04T11:11:42;6.68;;;1.23;;
27857;SDS011;16852;51.446;6.528;2023-03-04T11:13:49;5.82;;;1.42;;
27857;SDS011;16852;51.446;6.528;2023-03-04T11:15:56;5.07;;;1.40;;
27857;SDS011;16852;51.446;6.528;2023-03-04T11:18:05;5.22;;;1.33;;
27857;SDS011;16852;51.446;6.528;2023-03-04T11:22:16;3.10;;;0.90;;
27857;SDS011;16852;51.446;6.528;2023-03-04T11:24:21;6.28;;;1.33;;
27857;SDS011;16852;51.446;6.528;2023-03-04T11:26:34;6.28;;;1.55;;
27857;SDS011;16852;51.446;6.528;2023-03-04T11:28:46;7.53;;;1.20;;
27857;SDS011;16852;51.446;6.528;2023-03-04T11:30:58;2.65;;;1.10;;
27857;SDS011;16852;51.446;6.528;2023-03-04T11:35:28;6.35;;;1.40;;
27857;SDS011;16852;51.446;6.528;2023-03-04T11:37:34;5.20;;;1.30;;
27857;SDS011;16852;51.446;6.528;2023-03-04T11:39:41;2.63;;;1.10;;
27857;SDS011;16852;51.446;6.528;2023-03-04T11:42:05;2.90;;;0.73;;
27857;SDS011;16852;51.446;6.528;2023-03-04T11:44:10;4.03;;;1.13;;
27857;SDS011;16852;51.446;6.528;2023-03-04T11:57:59;3.40;;;1.30;;
27857;SDS011;16852;51.446;6.528;2023-03-04T12:02:23;2.33;;;1.10;;
27857;SDS011;16852;51.446;6.528;2023-03-04T12:06:58;2.70;;;1.00;;
27857;SDS011;16852;51.446;6.528;2023-03-04T12:09:16;2.60;;;1.00;;
27857;SDS011;16852;51.446;6.528;2023-03-04T12:20:38;4.68;;;1.20;;
27857;SDS011;16852;51.446;6.528;2023-03-04T12:22:45;3.83;;;1.30;;
27857;SDS011;16852;51.446;6.528;2023-03-04T12:31:49;5.72;;;1.25;;
27857;SDS011;16852;51.446;6.528;2023-03-04T12:38:29;2.97;;;1.13;;
27857;SDS011;16852;51.446;6.528;2023-03-04T12:41:00;2.53;;;1.00;;
27857;SDS011;16852;51.446;6.528;2023-03-04T12:43:07;1.77;;;0.93;;
27857;SDS011;16852;51.446;6.528;2023-03-04T12:45:31;3.10;;;0.77;;
27857;SDS011;16852;51.446;6.528;2023-03-04T12:47:42;2.38;;;0.82;;
27857;SDS011;16852;51.446;6.528;2023-03-04T12:51:56;7.10;;;1.63;;
27857;SDS011;16852;51.446;6.528;2023-03-04T12:56:24;4.32;;;1.10;;
27857;SDS011;16852;51.446;6.528;2023-03-04T12:58:45;2.92;;;1.00;;
27857;SDS011;16852;51.446;6.528;2023-03-04T13:01:32;3.28;;;1.30;;
27857;SDS011;16852;51.446;6.528;2023-03-04T13:08:06;2.50;;;1.20;;
27857;SDS011;16852;51.446;6.528;2023-03-04T13:10:12;1.15;;;0.70;;
27857;SDS011;16852;51.446;6.528;2023-03-04T13:12:20;3.50;;;1.00;;
27857;SDS011;16852;51.446;6.528;2023-03-04T13:14:24;2.50;;;0.90;;
27857;SDS011;16852;51.446;6.528;2023-03-04T13:16:27;3.45;;;1.23;;
27857;SDS011;16852;51.446;6.528;2023-03-04T13:18:33;2.35;;;0.80;;
27857;SDS011;16852;51.446;6.528;2023-03-04T13:20:36;2.05;;;1.00;;
27857;SDS011;16852;51.446;6.528;2023-03-04T13:22:44;1.38;;;0.85;;
27857;SDS011;16852;51.446;6.528;2023-03-04T13:29:47;3.72;;;1.10;;